Time;durP1;ratioP1;P1;durP2;ratioP2;P2;SDS_P1;SDS_P2;PMS_P1;PMS_P2;Temp;Humidity;BMP_temperature;BMP_pressure;BME280_temperature;BME280_humidity;BME280_pressure;Samples;Min_cycle;Max_cycle;Signal;HPM_P1;HPM_P2
2022/07/23 00:00:11;;;;;;;4.33;3.40;;;;;24.70;100700.00;;;;2087985;28;20220;-55
2022/07/23 00:01:12;;;;;;;3.50;3.20;;;;;24.70;100702.00;;;;2088257;28;20754;-55
2022/07/23 00:02:12;;;;;;;2.60;2.40;;;;;24.70;100714.00;;;;2088450;28;20213;-55
2022/07/23 00:03:13;;;;;;;3.03;2.73;;;;;24.60;100705.00;;;;2088471;28;20209;-55
2022/07/23 00:04:13;;;;;;;3.90;3.00;;;;;24.70;100703.00;;;;2087600;28;20243;-55
2022/07/23 00:05:13;;;;;;;3.20;2.57;;;;;24.70;100699.00;;;;2087449;28;20221;-55
2022/07/23 00:06:14;;;;;;;3.53;3.10;;;;;24.70;100692.00;;;;2086590;28;20228;-55
2022/07/23 00:07:14;;;;;;;3.67;2.83;;;;;24.70;100693.00;;;;2087458;28;20224;-55
2022/07/23 00:08:22;;;;;;;2.93;2.63;;;;;24.70;100692.00;;;;2087351;28;20224;-55
2022/07/23 00:09:22;;;;;;;2.97;2.70;;;;;24.60;100690.00;;;;2087872;28;20205;-55
2022/07/23 00:10:22;;;;;;;3.40;2.70;;;;;24.70;100687.00;;;;2088198;28;20209;-55
2022/07/23 00:11:23;;;;;;;3.23;2.93;;;;;24.70;100696.00;;;;2081686;28;20219;-55
2022/07/23 00:12:26;;;;;;;3.33;2.90;;;;;24.70;100680.00;;;;2080167;28;20222;-58
2022/07/23 00:13:26;;;;;;;4.35;2.75;;;;;24.60;100700.00;;;;2080157;28;20213;-55
2022/07/23 00:14:27;;;;;;;3.33;2.53;;;;;24.70;100699.00;;;;2080149;28;20247;-55
2022/07/23 00:15:27;;;;;;;2.97;2.73;;;;;24.70;100705.00;;;;2080179;28;20244;-55
2022/07/23 00:16:27;;;;;;;3.80;2.90;;;;;24.70;100737.00;;;;2080281;28;20262;-55
2022/07/23 00:17:28;;;;;;;3.80;2.90;;;;;24.70;100706.00;;;;2079583;28;20210;-55
2022/07/23 00:18:28;;;;;;;4.50;2.97;;;;;24.70;100703.00;;;;2080194;28;20298;-55
2022/07/23 00:19:29;;;;;;;5.50;3.60;;;;;24.70;100702.00;;;;2079699;28;20209;-55
2022/07/23 00:20:29;;;;;;;3.10;2.60;;;;;24.70;100695.00;;;;2080147;28;20229;-55
2022/07/23 00:21:29;;;;;;;3.63;3.17;;;;;24.70;100694.00;;;;2079493;28;20698;-55
2022/07/23 00:22:30;;;;;;;3.40;3.03;;;;;24.70;100700.00;;;;2081706;28;20716;-55
2022/07/23 00:23:30;;;;;;;3.83;3.10;;;;;24.70;100698.00;;;;2088549;28;20220;-55
2022/07/23 00:24:31;;;;;;;4.30;2.50;;;;;24.70;100694.00;;;;2087844;28;20696;-56
2022/07/23 00:25:31;;;;;;;2.60;2.23;;;;;24.70;100696.00;;;;2088270;28;20213;-56
2022/07/23 00:26:31;;;;;;;4.63;2.80;;;;;24.70;100689.00;;;;2088116;28;20245;-56
2022/07/23 00:27:32;;;;;;;3.27;2.90;;;;;24.70;100690.00;;;;2087493;28;20704;-55
2022/07/23 00:28:32;;;;;;;4.33;3.10;;;;;24.70;100696.00;;;;2088315;28;20294;-56
2022/07/23 00:29:32;;;;;;;3.77;2.77;;;;;24.70;100705.00;;;;2088300;28;20209;-56
2022/07/23 00:30:33;;;;;;;3.50;2.93;;;;;24.70;100692.00;;;;2088340;28;20423;-56
2022/07/23 00:31:33;;;;;;;3.17;2.73;;;;;24.70;100706.00;;;;2088292;28;20236;-56
2022/07/23 00:32:54;;;;;;;3.67;2.77;;;;;24.70;100705.00;;;;2088505;28;20232;-56
2022/07/23 00:33:57;;;;;;;3.10;2.80;;;;;24.70;100693.00;;;;2087751;28;20291;-55
2022/07/23 00:34:57;;;;;;;3.40;2.90;;;;;24.70;100702.00;;;;2087199;28;20689;-55
2022/07/23 00:35:58;;;;;;;3.60;2.90;;;;;24.70;100685.00;;;;2088244;28;20213;-55
2022/07/23 00:36:58;;;;;;;2.90;2.60;;;;;24.70;100691.00;;;;2088258;28;20235;-55
2022/07/23 00:37:58;;;;;;;2.77;2.57;;;;;24.70;100692.00;;;;2087358;28;20205;-55
2022/07/23 00:38:59;;;;;;;3.63;2.93;;;;;24.70;100688.00;;;;2088245;28;20209;-55
2022/07/23 00:39:59;;;;;;;4.07;2.60;;;;;24.70;100688.00;;;;2088304;28;20225;-55
2022/07/23 00:40:59;;;;;;;3.37;3.07;;;;;24.70;100691.00;;;;2088423;28;20267;-55
2022/07/23 00:42:00;;;;;;;2.93;2.50;;;;;24.70;100694.00;;;;2086504;28;20244;-54
2022/07/23 00:43:00;;;;;;;3.20;2.77;;;;;24.70;100690.00;;;;2088173;28;20242;-54
2022/07/23 00:44:17;;;;;;;3.13;2.83;;;;;24.70;100691.00;;;;2088302;28;20213;-54
2022/07/23 00:45:18;;;;;;;2.75;2.55;;;;;24.70;100690.00;;;;2087988;28;20270;-55
2022/07/23 00:46:20;;;;;;;3.20;2.90;;;;;24.70;100740.00;;;;2088253;28;20694;-54
2022/07/23 00:47:20;;;;;;;3.05;2.50;;;;;24.70;100695.00;;;;2087221;28;20219;-55
2022/07/23 00:48:20;;;;;;;3.70;2.70;;;;;24.70;100681.00;;;;2087778;28;20205;-55
2022/07/23 00:49:22;;;;;;;4.33;3.40;;;;;24.70;100698.00;;;;2087650;28;20700;-55
2022/07/23 00:50:22;;;;;;;4.82;3.58;;;;;24.70;100687.00;;;;2086395;28;20201;-55
2022/07/23 00:51:22;;;;;;;3.10;2.90;;;;;24.70;100688.00;;;;2079434;28;20566;-55
2022/07/23 00:52:23;;;;;;;4.80;3.57;;;;;24.70;100680.00;;;;2079791;28;20271;-55
2022/07/23 00:53:23;;;;;;;3.53;3.23;;;;;24.70;100635.00;;;;2079647;28;20241;-55
2022/07/23 00:54:24;;;;;;;5.00;3.23;;;;;24.70;100677.00;;;;2079186;28;20209;-55
2022/07/23 00:55:25;;;;;;;2.95;2.75;;;;;24.60;100679.00;;;;2078413;28;20974;-55
2022/07/23 00:56:25;;;;;;;3.13;2.90;;;;;24.60;100671.00;;;;2078694;28;20214;-54
2022/07/23 00:57:25;;;;;;;3.97;3.57;;;;;24.60;100731.00;;;;2078575;28;20222;-54
2022/07/23 00:58:26;;;;;;;6.13;3.33;;;;;24.60;100679.00;;;;2079453;28;20276;-54
2022/07/23 00:59:26;;;;;;;3.40;2.70;;;;;24.60;100676.00;;;;2070873;28;20779;-54
2022/07/23 01:00:27;;;;;;;4.37;2.80;;;;;24.60;100677.00;;;;2079148;28;20220;-54
2022/07/23 01:01:27;;;;;;;3.73;3.10;;;;;24.60;100681.00;;;;2079896;28;20292;-55
2022/07/23 01:02:27;;;;;;;4.43;3.03;;;;;24.60;100675.00;;;;2080050;28;20636;-55
2022/07/23 01:03:28;;;;;;;4.87;3.30;;;;;24.60;100676.00;;;;2079873;28;20579;-55
2022/07/23 01:04:28;;;;;;;4.57;3.10;;;;;24.60;100687.00;;;;2079551;28;20275;-55
2022/07/23 01:05:28;;;;;;;4.57;3.93;;;;;24.60;100680.00;;;;2080206;28;20585;-54
2022/07/23 01:06:29;;;;;;;3.13;2.87;;;;;24.60;100680.00;;;;2086942;28;20584;-55
2022/07/23 01:07:29;;;;;;;3.53;2.63;;;;;24.60;100685.00;;;;2087358;28;20275;-54
2022/07/23 01:08:29;;;;;;;3.67;3.37;;;;;24.60;100684.00;;;;2085493;28;20282;-54
2022/07/23 01:09:31;;;;;;;3.03;2.73;;;;;24.60;100687.00;;;;2083255;28;20224;-55
2022/07/23 01:10:31;;;;;;;4.82;2.90;;;;;24.60;100680.00;;;;2087370;28;20208;-55
2022/07/23 01:11:33;;;;;;;3.00;2.70;;;;;24.60;100684.00;;;;2087317;28;20371;-55
2022/07/23 01:12:33;;;;;;;3.58;2.90;;;;;24.70;100691.00;;;;2087374;28;20208;-55
2022/07/23 01:13:34;;;;;;;4.47;3.00;;;;;24.60;100691.00;;;;2088168;28;20221;-55
2022/07/23 01:14:34;;;;;;;4.53;2.90;;;;;24.60;100689.00;;;;2087856;28;20220;-54
2022/07/23 01:15:35;;;;;;;3.50;3.13;;;;;24.60;100687.00;;;;2088057;28;20385;-54
2022/07/23 01:16:36;;;;;;;3.47;3.15;;;;;24.60;100683.00;;;;2081808;28;20585;-54
2022/07/23 01:17:36;;;;;;;3.50;2.63;;;;;24.60;100683.00;;;;2078293;28;20228;-54
2022/07/23 01:18:36;;;;;;;3.13;2.83;;;;;24.60;100691.00;;;;2079683;28;20589;-55
2022/07/23 01:19:37;;;;;;;3.53;2.77;;;;;24.60;100683.00;;;;2087969;28;20594;-55
2022/07/23 01:20:37;;;;;;;5.10;3.03;;;;;24.60;100683.00;;;;2082098;28;20625;-54
2022/07/23 01:21:40;;;;;;;3.60;2.93;;;;;24.60;100680.00;;;;2079254;28;20629;-55
2022/07/23 01:22:40;;;;;;;2.75;2.45;;;;;24.60;100682.00;;;;2078807;28;20214;-55
2022/07/23 01:23:41;;;;;;;3.37;3.07;;;;;23.90;100679.00;;;;2079891;28;21052;-55
2022/07/23 01:24:41;;;;;;;3.67;3.07;;;;;24.60;100679.00;;;;2079394;28;20209;-55
2022/07/23 01:25:54;;;;;;;3.80;3.37;;;;;24.60;100684.00;;;;2083227;28;20220;-55
2022/07/23 01:26:54;;;;;;;3.95;2.63;;;;;24.60;100685.00;;;;2079949;28;20290;-55
2022/07/23 01:27:55;;;;;;;2.90;2.70;;;;;24.60;100678.00;;;;2081964;28;20761;-54
2022/07/23 01:28:55;;;;;;;4.37;2.90;;;;;24.60;100686.00;;;;2087217;28;20766;-55
2022/07/23 01:29:56;;;;;;;3.60;2.70;;;;;24.60;100685.00;;;;2087310;28;20213;-55
2022/07/23 01:30:57;;;;;;;3.20;2.90;;;;;24.60;100684.00;;;;2087273;28;20343;-54
2022/07/23 01:31:57;;;;;;;3.00;2.70;;;;;24.60;100685.00;;;;2084565;28;20221;-55
2022/07/23 01:32:57;;;;;;;3.43;3.13;;;;;24.60;100687.00;;;;2079852;28;20220;-55
2022/07/23 01:33:58;;;;;;;3.37;2.70;;;;;24.60;100687.00;;;;2078335;28;20252;-55
2022/07/23 01:34:58;;;;;;;3.03;2.73;;;;;24.60;100691.00;;;;2079687;28;20764;-55
2022/07/23 01:35:58;;;;;;;4.00;3.60;;;;;24.60;100691.00;;;;2079731;28;20221;-55
2022/07/23 01:36:58;;;;;;;3.23;2.60;;;;;24.60;100684.00;;;;2079586;28;20236;-55
2022/07/23 01:37:59;;;;;;;2.97;2.60;;;;;24.70;100692.00;;;;2078181;28;20217;-54
2022/07/23 01:38:59;;;;;;;3.37;2.90;;;;;24.60;100685.00;;;;2079732;28;20247;-55
2022/07/23 01:39:59;;;;;;;4.90;3.03;;;;;24.60;100684.00;;;;2079608;28;20226;-55
2022/07/23 01:41:00;;;;;;;4.00;3.33;;;;;24.60;100688.00;;;;2082976;28;20221;-55
2022/07/23 01:42:00;;;;;;;3.47;3.13;;;;;24.70;100655.00;;;;2087638;28;20217;-55
2022/07/23 01:43:00;;;;;;;3.57;3.10;;;;;24.70;100670.00;;;;2087555;28;20212;-55
2022/07/23 01:44:01;;;;;;;3.87;2.93;;;;;24.60;100687.00;;;;2087890;28;20270;-55
2022/07/23 01:45:02;;;;;;;3.10;2.60;;;;;24.60;100685.00;;;;2087073;28;20383;-55
2022/07/23 01:46:03;;;;;;;3.95;3.00;;;;;24.60;100682.00;;;;2079021;28;20256;-55
2022/07/23 01:47:03;;;;;;;3.90;2.90;;;;;24.60;100678.00;;;;2087078;28;20756;-55
2022/07/23 01:48:04;;;;;;;2.77;2.57;;;;;24.60;100680.00;;;;2086593;28;20308;-55
2022/07/23 01:49:04;;;;;;;4.07;3.30;;;;;24.60;100682.00;;;;2087265;28;20236;-55
2022/07/23 01:50:05;;;;;;;4.67;3.53;;;;;24.60;100678.00;;;;2087064;28;20224;-55
2022/07/23 01:51:05;;;;;;;2.60;2.40;;;;;24.60;100672.00;;;;2087464;28;20217;-56
2022/07/23 01:52:09;;;;;;;2.97;2.70;;;;;24.60;100669.00;;;;2087746;28;20236;-56
2022/07/23 01:53:09;;;;;;;3.05;2.83;;;;;24.60;100677.00;;;;2087552;28;20209;-55
2022/07/23 01:54:09;;;;;;;4.10;3.20;;;;;24.60;100669.00;;;;2087858;28;20217;-55
2022/07/23 01:55:10;;;;;;;2.87;2.67;;;;;24.60;100667.00;;;;2087647;28;20255;-55
2022/07/23 01:56:10;;;;;;;3.97;3.30;;;;;24.60;100661.00;;;;2081726;28;20213;-55
2022/07/23 01:57:10;;;;;;;3.90;3.50;;;;;24.60;100668.00;;;;2086398;28;20213;-55
2022/07/23 01:58:11;;;;;;;3.60;3.30;;;;;24.60;100453.00;;;;2079345;28;20210;-55
2022/07/23 01:59:11;;;;;;;4.27;3.33;;;;;24.60;100666.00;;;;2079898;28;20268;-55
2022/07/23 02:00:11;;;;;;;4.47;3.30;;;;;24.60;100669.00;;;;2085220;28;20237;-55
2022/07/23 02:01:12;;;;;;;3.50;3.20;;;;;24.60;100662.00;;;;2087889;28;20239;-55
2022/07/23 02:02:12;;;;;;;3.47;2.90;;;;;24.60;100666.00;;;;2087241;28;20681;-55
2022/07/23 02:03:12;;;;;;;3.80;3.37;;;;;24.60;100665.00;;;;2079608;28;20213;-55
2022/07/23 02:04:13;;;;;;;5.13;3.60;;;;;24.60;100667.00;;;;2079559;28;20228;-55
2022/07/23 02:05:13;;;;;;;3.00;2.80;;;;;24.60;100666.00;;;;2079543;28;20321;-55
2022/07/23 02:06:13;;;;;;;3.37;3.00;;;;;24.60;100669.00;;;;2079452;28;20225;-55
2022/07/23 02:07:14;;;;;;;3.70;3.40;;;;;24.60;100672.00;;;;2079179;28;20225;-55
2022/07/23 02:08:14;;;;;;;3.37;3.07;;;;;24.60;100669.00;;;;2078389;28;20324;-55
2022/07/23 02:09:14;;;;;;;3.57;3.27;;;;;24.60;100669.00;;;;2078951;28;20228;-55
2022/07/23 02:10:15;;;;;;;3.80;3.30;;;;;24.60;100672.00;;;;2079279;28;20243;-55
2022/07/23 02:11:15;;;;;;;3.67;3.30;;;;;24.60;100668.00;;;;2079399;28;20893;-55
2022/07/23 02:12:15;;;;;;;4.07;3.70;;;;;24.40;100662.00;;;;2078758;28;20600;-55
2022/07/23 02:13:16;;;;;;;3.60;3.30;;;;;24.60;100673.00;;;;2078363;28;20867;-60
2022/07/23 02:14:16;;;;;;;3.10;2.80;;;;;24.60;100671.00;;;;2079231;28;20641;-57
2022/07/23 02:15:16;;;;;;;4.17;3.60;;;;;24.60;100672.00;;;;2079088;28;20252;-55
2022/07/23 02:16:17;;;;;;;3.87;3.47;;;;;24.60;100661.00;;;;2078446;28;20314;-55
2022/07/23 02:17:17;;;;;;;3.57;3.10;;;;;24.60;100667.00;;;;2077869;28;20221;-56
2022/07/23 02:18:17;;;;;;;3.77;3.47;;;;;24.60;100675.00;;;;2081630;28;20581;-55
2022/07/23 02:19:18;;;;;;;4.77;3.70;;;;;24.60;100673.00;;;;2086869;28;20630;-56
2022/07/23 02:20:18;;;;;;;4.30;3.47;;;;;24.60;100667.00;;;;2086442;28;20267;-56
2022/07/23 02:21:18;;;;;;;4.10;3.80;;;;;24.60;100673.00;;;;2087153;28;20262;-56
2022/07/23 02:22:19;;;;;;;3.90;3.50;;;;;24.60;100669.00;;;;2087776;28;20240;-55
2022/07/23 02:23:19;;;;;;;4.60;3.40;;;;;24.60;100669.00;;;;2087470;28;20273;-55
2022/07/23 02:24:20;;;;;;;3.67;2.90;;;;;24.60;100657.00;;;;2086530;28;20209;-55
2022/07/23 02:25:20;;;;;;;3.63;3.33;;;;;24.60;100672.00;;;;2086907;28;20217;-55
2022/07/23 02:26:20;;;;;;;3.50;3.20;;;;;24.60;100663.00;;;;2087052;28;20624;-55
2022/07/23 02:27:21;;;;;;;3.90;3.43;;;;;24.60;100663.00;;;;2086585;28;20701;-55
2022/07/23 02:28:21;;;;;;;3.83;3.53;;;;;24.60;100680.00;;;;2087271;28;20208;-55
2022/07/23 02:29:22;;;;;;;5.33;3.33;;;;;24.60;100673.00;;;;2087569;28;20216;-54
2022/07/23 02:30:22;;;;;;;4.00;3.23;;;;;24.60;100661.00;;;;2075271;28;20243;-55
2022/07/23 02:31:22;;;;;;;3.50;3.20;;;;;24.60;100672.00;;;;2086919;28;20221;-56
2022/07/23 02:32:23;;;;;;;3.53;3.23;;;;;24.60;100677.00;;;;2094541;28;20220;-56
2022/07/23 02:33:23;;;;;;;3.73;3.43;;;;;24.60;100672.00;;;;2086690;28;20223;-55
2022/07/23 02:34:24;;;;;;;4.37;3.10;;;;;24.60;100667.00;;;;2086857;28;20232;-55
2022/07/23 02:35:24;;;;;;;4.00;3.60;;;;;24.60;100663.00;;;;2087379;28;20217;-57
2022/07/23 02:36:24;;;;;;;2.90;2.60;;;;;24.60;100669.00;;;;2087645;28;20213;-56
2022/07/23 02:37:25;;;;;;;4.23;3.83;;;;;24.60;100671.00;;;;2086463;28;20343;-56
2022/07/23 02:38:25;;;;;;;4.43;3.50;;;;;24.60;100664.00;;;;2087618;28;20209;-56
2022/07/23 02:39:25;;;;;;;4.30;3.20;;;;;24.60;100669.00;;;;2087372;28;20217;-56
2022/07/23 02:40:26;;;;;;;4.93;3.50;;;;;24.60;100677.00;;;;2080103;28;20244;-55
2022/07/23 02:41:26;;;;;;;3.80;3.50;;;;;24.60;100661.00;;;;2079320;28;20225;-55
2022/07/23 02:42:26;;;;;;;3.97;3.57;;;;;24.60;100673.00;;;;2079494;28;20209;-55
2022/07/23 02:43:27;;;;;;;3.33;3.03;;;;;24.60;100671.00;;;;2079541;28;20237;-55
2022/07/23 02:44:27;;;;;;;3.23;2.93;;;;;24.60;100676.00;;;;2079223;28;20220;-55
2022/07/23 02:45:27;;;;;;;4.23;3.83;;;;;24.60;100674.00;;;;2079132;28;20221;-55
2022/07/23 02:46:28;;;;;;;3.60;3.20;;;;;24.60;100683.00;;;;2079150;28;20218;-55
2022/07/23 02:47:28;;;;;;;3.20;3.00;;;;;24.60;100672.00;;;;2077681;28;20217;-55
2022/07/23 02:48:28;;;;;;;3.63;3.33;;;;;24.60;100683.00;;;;2078348;28;20224;-55
2022/07/23 02:49:29;;;;;;;4.00;3.70;;;;;24.60;100674.00;;;;2079096;28;20215;-55
2022/07/23 02:50:29;;;;;;;3.73;3.40;;;;;24.60;100672.00;;;;2078936;28;20210;-55
2022/07/23 02:51:30;;;;;;;4.57;3.47;;;;;24.60;100670.00;;;;2078284;28;20272;-56
2022/07/23 02:52:30;;;;;;;4.63;2.83;;;;;24.60;100671.00;;;;2078463;28;20251;-55
2022/07/23 02:53:30;;;;;;;3.43;3.13;;;;;24.60;100670.00;;;;2079041;28;20221;-55
2022/07/23 02:54:31;;;;;;;3.23;2.93;;;;;24.60;100671.00;;;;2079120;28;20209;-56
2022/07/23 02:55:31;;;;;;;3.17;2.90;;;;;24.60;100666.00;;;;2079272;28;20304;-55
2022/07/23 02:56:31;;;;;;;3.37;3.07;;;;;24.60;100667.00;;;;2079139;28;20209;-55
2022/07/23 02:57:32;;;;;;;3.40;2.83;;;;;24.60;100663.00;;;;2077421;28;20216;-55
2022/07/23 02:58:32;;;;;;;4.50;3.20;;;;;24.60;100664.00;;;;2078539;28;20256;-55
2022/07/23 02:59:32;;;;;;;3.30;3.00;;;;;24.60;100665.00;;;;2078887;28;20612;-55
2022/07/23 03:00:33;;;;;;;3.57;3.10;;;;;24.60;100678.00;;;;2078988;28;20229;-55
2022/07/23 03:01:33;;;;;;;3.30;2.77;;;;;24.60;100666.00;;;;2079051;28;20220;-55
2022/07/23 03:02:33;;;;;;;3.20;2.90;;;;;24.60;100669.00;;;;2078286;28;20206;-55
2022/07/23 03:03:34;;;;;;;3.80;2.90;;;;;24.60;100666.00;;;;2078509;28;20208;-55
2022/07/23 03:04:34;;;;;;;3.17;2.90;;;;;24.60;100667.00;;;;2078472;28;20217;-54
2022/07/23 03:05:34;;;;;;;3.43;3.13;;;;;24.60;100667.00;;;;2079349;28;20216;-55
2022/07/23 03:06:35;;;;;;;3.53;2.83;;;;;24.60;100673.00;;;;2078587;28;20210;-55
2022/07/23 03:07:35;;;;;;;3.00;2.80;;;;;24.60;100670.00;;;;2084871;28;20236;-55
2022/07/23 03:08:35;;;;;;;3.57;3.23;;;;;24.60;100669.00;;;;2078501;28;20248;-55
2022/07/23 03:09:36;;;;;;;4.40;3.47;;;;;24.60;100669.00;;;;2079075;28;20241;-55
2022/07/23 03:10:36;;;;;;;4.10;3.33;;;;;24.60;100663.00;;;;2078464;28;20225;-55
2022/07/23 03:11:36;;;;;;;3.93;3.13;;;;;24.60;100673.00;;;;2079933;28;20221;-55
2022/07/23 03:12:37;;;;;;;3.50;3.20;;;;;24.60;100673.00;;;;2087340;28;20208;-55
2022/07/23 03:13:38;;;;;;;3.20;2.90;;;;;24.60;100673.00;;;;2087367;28;20319;-55
2022/07/23 03:14:38;;;;;;;3.47;3.03;;;;;24.60;100666.00;;;;2086972;28;20212;-55
2022/07/23 03:15:38;;;;;;;3.27;2.97;;;;;24.60;100662.00;;;;2086217;28;20228;-55
2022/07/23 03:16:39;;;;;;;5.40;3.13;;;;;24.60;100667.00;;;;2084841;28;20209;-55
2022/07/23 03:17:39;;;;;;;3.20;2.80;;;;;24.60;100662.00;;;;2086584;28;20236;-55
2022/07/23 03:18:40;;;;;;;5.60;3.17;;;;;24.60;100661.00;;;;2087120;28;20236;-55
2022/07/23 03:19:41;;;;;;;5.72;3.00;;;;;24.60;100664.00;;;;2086989;28;20283;-55
2022/07/23 03:20:41;;;;;;;4.30;3.30;;;;;24.60;100655.00;;;;2081997;28;20214;-55
2022/07/23 03:21:42;;;;;;;3.30;3.00;;;;;24.60;100655.00;;;;2078984;28;20209;-55
2022/07/23 03:22:42;;;;;;;3.40;3.10;;;;;24.60;100653.00;;;;2079045;28;20202;-55
2022/07/23 03:23:42;;;;;;;3.73;3.43;;;;;24.60;100657.00;;;;2078700;28;20232;-55
2022/07/23 03:24:54;;;;;;;4.60;3.43;;;;;24.60;100661.00;;;;2078383;28;20205;-55
2022/07/23 03:25:55;;;;;;;4.43;3.10;;;;;24.60;100657.00;;;;2078241;28;20774;-55
2022/07/23 03:26:55;;;;;;;3.33;3.03;;;;;24.60;100661.00;;;;2077509;28;20229;-55
2022/07/23 03:27:55;;;;;;;3.60;3.30;;;;;24.60;100691.00;;;;2077275;28;20728;-55
2022/07/23 03:28:55;;;;;;;4.70;2.70;;;;;24.60;100658.00;;;;2078769;28;20732;-55
2022/07/23 03:29:57;;;;;;;3.10;2.80;;;;;24.60;100662.00;;;;2078265;28;20960;-55
2022/07/23 03:30:57;;;;;;;2.70;2.50;;;;;24.60;100650.00;;;;2060341;28;20222;-57
2022/07/23 03:31:58;;;;;;;3.10;2.80;;;;;24.60;100658.00;;;;2069985;28;20697;-57
2022/07/23 03:32:58;;;;;;;4.43;3.03;;;;;24.60;100653.00;;;;2078924;28;20233;-55
2022/07/23 03:33:58;;;;;;;4.80;3.10;;;;;24.60;100650.00;;;;2078731;28;20216;-56
2022/07/23 03:34:59;;;;;;;3.37;2.70;;;;;24.60;100665.00;;;;2078650;28;20222;-56
2022/07/23 03:35:59;;;;;;;3.67;3.03;;;;;24.60;100653.00;;;;2078204;28;20213;-55
2022/07/23 03:36:59;;;;;;;3.07;2.80;;;;;24.60;100661.00;;;;2078172;28;20237;-55
2022/07/23 03:38:00;;;;;;;3.07;2.80;;;;;24.60;100658.00;;;;2077947;28;20728;-55
2022/07/23 03:39:00;;;;;;;3.17;2.87;;;;;24.60;100653.00;;;;2078841;28;20289;-56
2022/07/23 03:40:00;;;;;;;3.13;2.83;;;;;24.60;100665.00;;;;2078540;28;20244;-56
2022/07/23 03:41:01;;;;;;;3.73;2.63;;;;;24.60;100667.00;;;;2078720;28;20228;-56
2022/07/23 03:42:01;;;;;;;3.20;2.90;;;;;24.60;100659.00;;;;2086542;28;20213;-55
2022/07/23 03:43:01;;;;;;;2.90;2.70;;;;;24.60;100657.00;;;;2086251;28;20232;-55
2022/07/23 03:44:02;;;;;;;4.83;3.30;;;;;24.60;100660.00;;;;2086232;28;20204;-56
2022/07/23 03:45:03;;;;;;;3.30;3.00;;;;;24.60;100662.00;;;;2086891;28;20209;-56
2022/07/23 03:46:04;;;;;;;3.25;2.95;;;;;24.60;100656.00;;;;2085891;28;20335;-56
2022/07/23 03:47:05;;;;;;;3.50;2.90;;;;;24.60;100654.00;;;;2086421;28;20290;-55
2022/07/23 03:48:05;;;;;;;3.07;2.87;;;;;24.60;100661.00;;;;2083799;28;20229;-57
2022/07/23 03:49:05;;;;;;;4.83;2.90;;;;;24.60;100660.00;;;;2086414;28;20459;-55
2022/07/23 03:50:06;;;;;;;2.90;2.60;;;;;24.60;100666.00;;;;2086322;28;20263;-55
2022/07/23 03:51:07;;;;;;;2.77;2.30;;;;;24.60;100673.00;;;;2077614;28;20217;-55
2022/07/23 03:52:08;;;;;;;2.75;2.55;;;;;24.60;100694.00;;;;2078086;28;20225;-55
2022/07/23 03:53:08;;;;;;;3.00;2.63;;;;;24.60;100670.00;;;;2087032;28;20568;-55
2022/07/23 03:54:08;;;;;;;3.57;2.87;;;;;24.60;100677.00;;;;2087177;28;20216;-55
2022/07/23 03:55:09;;;;;;;2.93;2.20;;;;;24.60;100677.00;;;;2086965;28;20267;-55
2022/07/23 03:56:09;;;;;;;3.73;2.97;;;;;24.60;100670.00;;;;2085961;28;20242;-55
2022/07/23 03:57:09;;;;;;;4.83;3.10;;;;;24.60;100673.00;;;;2085874;28;20244;-55
2022/07/23 03:58:10;;;;;;;2.97;2.50;;;;;24.60;100728.00;;;;2085886;28;20211;-55
2022/07/23 03:59:10;;;;;;;2.83;2.40;;;;;24.60;100672.00;;;;2086645;28;20217;-55
2022/07/23 04:00:11;;;;;;;3.10;2.80;;;;;24.60;100667.00;;;;2086561;28;20688;-55
2022/07/23 04:01:11;;;;;;;3.00;2.70;;;;;24.60;100669.00;;;;2085826;28;20205;-55
2022/07/23 04:02:12;;;;;;;4.30;3.10;;;;;24.60;100675.00;;;;2085703;28;20444;-55
2022/07/23 04:03:12;;;;;;;3.67;3.10;;;;;24.60;100670.00;;;;2086612;28;20239;-55
2022/07/23 04:04:12;;;;;;;3.10;2.57;;;;;24.60;100671.00;;;;2086813;28;20216;-55
2022/07/23 04:05:13;;;;;;;2.93;2.73;;;;;24.60;100677.00;;;;2086882;28;20215;-55
2022/07/23 04:06:13;;;;;;;2.70;2.50;;;;;24.60;100678.00;;;;2086990;28;20342;-55
2022/07/23 04:07:14;;;;;;;3.53;2.90;;;;;24.60;100677.00;;;;2086349;28;20204;-55
2022/07/23 04:08:14;;;;;;;2.90;2.70;;;;;24.60;100680.00;;;;2086439;28;20232;-54
2022/07/23 04:09:14;;;;;;;3.70;3.00;;;;;24.50;100675.00;;;;2086804;28;20213;-55
2022/07/23 04:10:15;;;;;;;3.00;2.70;;;;;24.50;100671.00;;;;2086702;28;20278;-55
2022/07/23 04:11:15;;;;;;;3.20;2.90;;;;;24.50;100677.00;;;;2086561;28;20972;-55
2022/07/23 04:12:15;;;;;;;3.53;3.23;;;;;24.50;100684.00;;;;2086615;28;20216;-55
2022/07/23 04:13:16;;;;;;;4.70;3.07;;;;;24.50;100688.00;;;;2086657;28;20231;-55
2022/07/23 04:14:17;;;;;;;3.60;3.30;;;;;24.50;100684.00;;;;2086836;28;20620;-55
2022/07/23 04:15:17;;;;;;;3.13;2.50;;;;;24.60;100684.00;;;;2086908;28;20606;-55
2022/07/23 04:16:17;;;;;;;3.50;2.80;;;;;24.50;100685.00;;;;2083902;28;20223;-55
2022/07/23 04:17:18;;;;;;;3.30;2.83;;;;;24.60;100679.00;;;;2078093;28;21156;-55
2022/07/23 04:18:18;;;;;;;3.70;3.40;;;;;24.50;100674.00;;;;2078419;28;20698;-55
2022/07/23 04:19:18;;;;;;;4.70;3.20;;;;;24.60;100683.00;;;;2078733;28;20213;-55
2022/07/23 04:20:19;;;;;;;3.80;3.33;;;;;24.50;100689.00;;;;2078175;28;20220;-55
2022/07/23 04:21:19;;;;;;;3.83;2.70;;;;;24.60;100686.00;;;;2078669;28;20221;-55
2022/07/23 04:22:19;;;;;;;3.03;2.73;;;;;24.60;100685.00;;;;2078529;28;20213;-55
2022/07/23 04:23:20;;;;;;;3.23;2.90;;;;;24.60;100682.00;;;;2078285;28;20241;-55
2022/07/23 04:24:20;;;;;;;3.70;3.03;;;;;24.60;100685.00;;;;2078434;28;20220;-55
2022/07/23 04:25:21;;;;;;;2.90;2.70;;;;;24.50;100678.00;;;;2078160;28;20240;-55
2022/07/23 04:26:21;;;;;;;3.20;2.90;;;;;24.50;100681.00;;;;2078636;28;20228;-55
2022/07/23 04:27:21;;;;;;;3.63;2.90;;;;;24.50;100491.00;;;;2077517;28;20217;-56
2022/07/23 04:28:22;;;;;;;3.33;3.03;;;;;24.50;100689.00;;;;2078305;28;20567;-55
2022/07/23 04:29:22;;;;;;;4.00;2.90;;;;;24.60;100678.00;;;;2078762;28;20675;-55
2022/07/23 04:30:22;;;;;;;4.77;3.40;;;;;24.50;100683.00;;;;2078017;28;20240;-55
2022/07/23 04:31:23;;;;;;;2.90;2.70;;;;;24.50;100687.00;;;;2078675;28;20213;-56
2022/07/23 04:32:24;;;;;;;4.57;3.00;;;;;24.60;100688.00;;;;2078640;28;20209;-55
2022/07/23 04:33:24;;;;;;;3.15;2.85;;;;;24.50;100688.00;;;;2077290;28;20275;-55
2022/07/23 04:34:26;;;;;;;3.13;2.83;;;;;24.50;100686.00;;;;2077277;28;20202;-55
2022/07/23 04:35:26;;;;;;;6.07;3.15;;;;;24.60;100698.00;;;;2077796;28;20229;-54
2022/07/23 04:36:27;;;;;;;3.00;2.80;;;;;24.50;100693.00;;;;2078338;28;20376;-55
2022/07/23 04:37:27;;;;;;;3.13;2.57;;;;;24.60;100685.00;;;;2077701;28;20733;-55
2022/07/23 04:38:27;;;;;;;2.60;2.40;;;;;24.50;100693.00;;;;2078328;28;20585;-55
2022/07/23 04:39:28;;;;;;;3.93;2.97;;;;;24.60;100699.00;;;;2078668;28;20236;-55
2022/07/23 04:40:28;;;;;;;3.20;2.90;;;;;24.60;100694.00;;;;2078426;28;20214;-55
2022/07/23 04:41:28;;;;;;;3.10;2.53;;;;;24.60;100695.00;;;;2079265;28;20292;-56
2022/07/23 04:42:29;;;;;;;2.67;2.47;;;;;24.60;100705.00;;;;2082924;28;20217;-55
2022/07/23 04:43:29;;;;;;;4.00;3.07;;;;;24.60;100704.00;;;;2088167;28;20303;-55
2022/07/23 04:44:30;;;;;;;2.97;2.67;;;;;24.60;100704.00;;;;2088171;28;20208;-55
2022/07/23 04:45:30;;;;;;;3.63;2.80;;;;;24.60;100708.00;;;;2088224;28;20216;-55
2022/07/23 04:46:30;;;;;;;5.03;2.80;;;;;24.60;100691.00;;;;2081196;28;20292;-55
2022/07/23 04:47:31;;;;;;;3.20;2.90;;;;;24.60;100713.00;;;;2078384;28;20697;-55
2022/07/23 04:48:31;;;;;;;2.80;2.60;;;;;24.60;100712.00;;;;2079233;28;20221;-55
2022/07/23 04:49:31;;;;;;;3.20;2.90;;;;;24.50;100712.00;;;;2079367;28;20236;-55
2022/07/23 04:50:32;;;;;;;4.07;3.07;;;;;24.50;100711.00;;;;2079933;28;20241;-55
2022/07/23 04:51:32;;;;;;;4.40;3.00;;;;;24.50;100704.00;;;;2079898;28;20205;-55
2022/07/23 04:52:32;;;;;;;5.20;3.00;;;;;24.60;100707.00;;;;2079979;28;20213;-55
2022/07/23 04:53:33;;;;;;;3.63;3.23;;;;;24.60;100697.00;;;;2080044;28;20221;-55
2022/07/23 04:54:33;;;;;;;4.60;3.00;;;;;24.60;100698.00;;;;2079992;28;20579;-55
2022/07/23 04:55:33;;;;;;;4.03;2.93;;;;;24.60;100703.00;;;;2079797;28;20290;-55
2022/07/23 04:56:34;;;;;;;3.60;2.90;;;;;24.60;100706.00;;;;2080143;28;20205;-55
2022/07/23 04:57:34;;;;;;;3.13;2.83;;;;;24.60;100698.00;;;;2079228;28;20206;-55
2022/07/23 04:58:34;;;;;;;2.80;2.50;;;;;24.60;100708.00;;;;2080021;28;20209;-55
2022/07/23 04:59:35;;;;;;;4.40;2.83;;;;;24.60;100705.00;;;;2079947;28;20283;-55